Time;durP1;ratioP1;P1;durP2;ratioP2;P2;SDS_P1;SDS_P2;PMS_P1;PMS_P2;Temp;Humidity;BMP_temperature;BMP_pressure;BME280_temperature;BME280_humidity;BME280_pressure;Samples;Min_cycle;Max_cycle;Signal;HPM_P1;HPM_P2
2022/04/27 00:00:38;;;;;;;1.67;1.50;;;19.50;54.00;;;;;;5051442;28;20312;-69
2022/04/27 00:03:05;;;;;;;2.00;1.90;;;19.50;54.00;;;;;;5034342;28;20206;-69
2022/04/27 00:05:33;;;;;;;1.85;1.75;;;19.50;54.00;;;;;;5051214;28;20224;-69
2022/04/27 00:07:59;;;;;;;1.77;1.67;;;19.50;54.00;;;;;;5034370;28;20189;-69
2022/04/27 00:10:25;;;;;;;2.35;2.10;;;19.50;54.00;;;;;;5051192;28;20205;-69
2022/04/27 00:12:51;;;;;;;1.80;1.70;;;19.50;54.00;;;;;;5051088;28;20313;-69
2022/04/27 00:15:20;;;;;;;1.90;1.80;;;19.50;54.00;;;;;;5050997;28;20630;-69
2022/04/27 00:17:46;;;;;;;1.83;1.73;;;19.50;53.90;;;;;;5050821;28;20182;-69
2022/04/27 00:20:12;;;;;;;1.88;1.60;;;19.50;53.90;;;;;;5051059;28;20236;-69
2022/04/27 00:22:38;;;;;;;2.15;1.92;;;19.50;54.00;;;;;;5052134;28;20194;-69
2022/04/27 00:25:05;;;;;;;1.52;1.42;;;19.50;53.90;;;;;;5034254;28;20277;-69
2022/04/27 00:27:31;;;;;;;1.58;1.48;;;19.50;54.00;;;;;;5034399;28;20190;-69
2022/04/27 00:29:59;;;;;;;1.80;1.70;;;19.50;54.00;;;;;;5051210;28;20186;-69
2022/04/27 00:32:25;;;;;;;1.70;1.60;;;19.50;54.00;;;;;;5051210;28;20226;-69
2022/04/27 00:34:51;;;;;;;1.70;1.60;;;19.50;54.00;;;;;;5034347;28;20185;-69
2022/04/27 00:37:18;;;;;;;2.85;1.70;;;19.50;54.00;;;;;;5033991;28;20187;-69
2022/04/27 00:39:45;;;;;;;1.67;1.58;;;19.50;54.00;;;;;;5052093;28;20208;-69
2022/04/27 00:42:21;;;;;;;1.75;1.65;;;19.50;54.00;;;;;;5050913;28;20226;-69
2022/04/27 00:44:48;;;;;;;1.88;1.60;;;19.50;54.00;;;;;;5050940;28;20269;-69
2022/04/27 00:47:16;;;;;;;1.52;1.42;;;19.50;54.00;;;;;;5034332;28;20221;-69
2022/04/27 00:50:02;;;;;;;1.85;1.50;;;19.50;54.00;;;;;;5048161;28;20182;-69
2022/04/27 00:52:32;;;;;;;2.15;1.77;;;19.50;54.00;;;;;;5030737;28;20223;-69
2022/04/27 00:54:58;;;;;;;1.77;1.67;;;19.50;54.00;;;;;;5014421;28;20168;-69
2022/04/27 00:57:25;;;;;;;2.03;1.85;;;19.50;53.90;;;;;;5047185;28;20195;-69
2022/04/27 00:59:52;;;;;;;2.35;1.60;;;19.50;53.90;;;;;;5047335;28;20548;-69
2022/04/27 01:02:19;;;;;;;2.47;1.40;;;19.50;53.90;;;;;;5047017;28;20220;-72
2022/04/27 01:04:45;;;;;;;1.50;1.40;;;19.50;54.00;;;;;;5047621;28;20258;-71
2022/04/27 01:07:12;;;;;;;1.60;1.50;;;19.50;53.90;;;;;;5063993;28;20179;-71
2022/04/27 01:09:39;;;;;;;1.55;1.30;;;19.50;53.90;;;;;;5049337;28;20182;-72
2022/04/27 01:12:06;;;;;;;1.60;1.50;;;19.50;54.00;;;;;;5034092;28;20684;-71
2022/04/27 01:14:44;;;;;;;1.35;1.25;;;19.50;54.00;;;;;;5052344;28;20221;-72
2022/04/27 01:17:10;;;;;;;1.30;1.20;;;19.50;54.00;;;;;;5054201;28;20186;-71
2022/04/27 01:19:37;;;;;;;1.52;1.25;;;19.50;54.00;;;;;;5054406;28;20183;-72
2022/04/27 01:22:04;;;;;;;1.40;1.30;;;19.50;54.00;;;;;;5054270;28;20718;-71
2022/04/27 01:24:35;;;;;;;1.67;1.58;;;19.50;53.90;;;;;;5038373;28;20182;-72
2022/04/27 01:27:01;;;;;;;1.30;1.20;;;19.50;53.90;;;;;;5054785;28;20183;-71
2022/04/27 01:29:27;;;;;;;1.50;1.40;;;19.50;54.00;;;;;;5053786;28;20190;-72
2022/04/27 01:31:53;;;;;;;1.67;1.55;;;19.50;54.00;;;;;;5037027;28;20186;-72
2022/04/27 01:34:20;;;;;;;1.65;1.55;;;19.50;53.90;;;;;;5055050;28;20265;-71
2022/04/27 01:36:46;;;;;;;1.60;1.50;;;19.50;53.90;;;;;;5037098;28;20190;-71
2022/04/27 01:39:12;;;;;;;2.00;1.80;;;19.50;53.90;;;;;;5054049;28;20197;-72
2022/04/27 01:41:39;;;;;;;1.70;1.60;;;19.50;53.90;;;;;;5036993;28;20210;-71
2022/04/27 01:44:05;;;;;;;1.63;1.52;;;19.50;54.00;;;;;;5053552;28;20209;-71
2022/04/27 01:46:31;;;;;;;1.70;1.60;;;19.50;53.90;;;;;;5054004;28;20277;-71
2022/04/27 01:48:58;;;;;;;1.98;1.60;;;19.50;53.90;;;;;;5053620;28;20270;-71
2022/04/27 01:54:17;;;;;;;1.10;1.10;;;19.50;53.90;;;;;;5053729;28;20178;-71
2022/04/27 01:56:47;;;;;;;2.05;1.80;;;19.50;53.90;;;;;;5053627;28;20187;-71
2022/04/27 01:59:14;;;;;;;1.15;1.13;;;19.50;53.90;;;;;;5053247;28;20186;-71
2022/04/27 02:01:41;;;;;;;1.98;1.10;;;19.50;54.00;;;;;;5053587;28;20267;-71
2022/04/27 02:04:08;;;;;;;1.13;1.10;;;19.50;54.00;;;;;;5036826;28;20187;-71
2022/04/27 02:06:37;;;;;;;1.52;1.42;;;19.50;54.00;;;;;;5053234;28;20179;-72
2022/04/27 02:09:08;;;;;;;1.60;1.50;;;19.50;54.00;;;;;;5053588;28;20565;-72
2022/04/27 02:11:42;;;;;;;1.60;1.50;;;19.50;54.00;;;;;;5053381;28;20244;-70
2022/04/27 02:14:07;;;;;;;1.80;1.70;;;19.50;54.00;;;;;;5053037;28;20194;-71
2022/04/27 02:16:37;;;;;;;1.90;1.80;;;19.50;54.00;;;;;;5042002;28;20584;-71
2022/04/27 02:19:04;;;;;;;1.83;1.73;;;19.50;53.90;;;;;;5032902;28;20281;-71
2022/04/27 02:21:31;;;;;;;1.90;1.80;;;19.50;53.90;;;;;;5033029;28;20302;-71
2022/04/27 02:23:58;;;;;;;2.90;1.80;;;19.50;53.90;;;;;;5066091;28;20222;-71
2022/04/27 02:26:24;;;;;;;2.17;1.65;;;19.50;53.90;;;;;;5030680;28;20199;-71
2022/04/27 02:28:50;;;;;;;1.75;1.65;;;19.50;53.90;;;;;;5066233;28;20187;-72
2022/04/27 02:31:16;;;;;;;1.23;1.23;;;19.50;53.90;;;;;;5066290;28;20537;-71
2022/04/27 02:33:42;;;;;;;1.73;1.63;;;19.50;53.90;;;;;;5066090;28;20199;-71
2022/04/27 02:36:08;;;;;;;1.67;1.58;;;19.50;54.00;;;;;;5066108;28;20533;-71
2022/04/27 02:38:34;;;;;;;1.50;1.40;;;19.50;54.00;;;;;;5049318;28;20191;-71
2022/04/27 02:41:03;;;;;;;1.60;1.50;;;19.50;53.90;;;;;;5048598;28;20211;-71
2022/04/27 02:43:31;;;;;;;1.30;1.20;;;19.40;53.80;;;;;;5049209;28;20686;-71
2022/04/27 02:45:59;;;;;;;1.42;1.13;;;19.40;53.90;;;;;;5049386;28;20179;-72
2022/04/27 02:48:25;;;;;;;1.50;1.40;;;19.50;53.90;;;;;;5033614;28;20180;-71
2022/04/27 02:53:36;;;;;;;1.70;1.60;;;19.50;53.90;;;;;;5032704;28;20219;-72
2022/04/27 02:56:03;;;;;;;1.52;1.42;;;19.50;53.90;;;;;;5032394;28;20191;-72
2022/04/27 02:58:31;;;;;;;2.17;1.98;;;19.50;53.90;;;;;;5032246;28;20190;-71
2022/04/27 03:00:57;;;;;;;1.80;1.70;;;19.50;54.00;;;;;;5032179;28;20211;-71
2022/04/27 03:03:22;;;;;;;2.03;1.92;;;19.50;53.90;;;;;;5032335;28;20206;-71
2022/04/27 03:05:50;;;;;;;1.90;1.80;;;19.50;53.90;;;;;;5016085;28;20183;-71
2022/04/27 03:08:15;;;;;;;2.20;2.10;;;19.50;53.90;;;;;;5015837;28;20187;-71
2022/04/27 03:10:48;;;;;;;1.80;1.70;;;19.50;53.90;;;;;;5032171;28;20730;-71
2022/04/27 03:13:15;;;;;;;1.58;1.48;;;19.50;53.90;;;;;;5032014;28;20230;-71
2022/04/27 03:15:41;;;;;;;1.55;1.45;;;19.50;53.90;;;;;;5015543;28;20233;-71
2022/04/27 03:18:22;;;;;;;1.33;1.30;;;19.50;53.90;;;;;;5015755;28;20234;-71
2022/04/27 03:20:50;;;;;;;1.42;1.33;;;19.50;53.90;;;;;;5016032;28;20215;-71
2022/04/27 03:23:17;;;;;;;1.45;1.35;;;19.50;53.90;;;;;;4999055;28;20607;-71
2022/04/27 03:25:48;;;;;;;1.38;1.27;;;19.40;53.80;;;;;;5016017;28;20274;-71
2022/04/27 03:28:14;;;;;;;1.23;1.13;;;19.50;53.90;;;;;;5032032;28;20330;-71
2022/04/27 03:30:40;;;;;;;1.40;1.30;;;19.40;53.80;;;;;;5031770;28;20270;-71
2022/04/27 03:33:18;;;;;;;1.63;1.52;;;19.40;53.80;;;;;;5017086;28;20237;-71
2022/04/27 03:35:46;;;;;;;1.60;1.50;;;19.40;53.80;;;;;;5031984;28;20191;-71
2022/04/27 03:38:14;;;;;;;1.77;1.67;;;19.40;53.80;;;;;;5014796;28;20206;-71
2022/04/27 03:40:41;;;;;;;2.00;1.90;;;19.50;53.90;;;;;;5015082;28;20298;-71
2022/04/27 03:43:09;;;;;;;1.90;1.80;;;19.40;53.80;;;;;;5031877;28;20230;-71
2022/04/27 03:45:35;;;;;;;1.98;1.88;;;19.40;53.80;;;;;;5015480;28;20180;-71
2022/04/27 03:48:01;;;;;;;1.90;1.80;;;19.50;53.90;;;;;;5014983;28;20207;-71
2022/04/27 03:50:28;;;;;;;1.73;1.63;;;19.40;53.70;;;;;;5015448;28;20198;-71
2022/04/27 03:52:54;;;;;;;1.67;1.58;;;19.50;53.90;;;;;;5014861;28;20211;-71
2022/04/27 03:55:24;;;;;;;1.88;1.40;;;19.40;53.80;;;;;;5031663;28;20191;-71
2022/04/27 03:57:51;;;;;;;1.40;1.35;;;19.40;53.80;;;;;;5031408;28;20211;-71
2022/04/27 04:00:19;;;;;;;1.15;1.10;;;19.40;53.80;;;;;;5015303;28;20187;-71
2022/04/27 04:02:49;;;;;;;1.50;1.40;;;19.40;53.80;;;;;;5031283;28;20211;-70
2022/04/27 04:05:15;;;;;;;1.40;1.30;;;19.40;53.80;;;;;;5031197;28;20210;-71
2022/04/27 04:07:41;;;;;;;1.40;1.30;;;19.40;53.80;;;;;;5030927;28;20186;-71
2022/04/27 04:10:08;;;;;;;1.52;1.42;;;19.40;53.80;;;;;;5031147;28;20187;-71
2022/04/27 04:12:36;;;;;;;1.50;1.40;;;19.40;53.80;;;;;;5015449;28;20238;-72
2022/04/27 04:15:13;;;;;;;1.60;1.50;;;19.40;53.80;;;;;;5016151;28;20202;-72
2022/04/27 04:17:48;;;;;;;1.70;1.60;;;19.40;53.80;;;;;;5030895;28;20254;-71
2022/04/27 04:20:44;;;;;;;1.60;1.50;;;19.40;53.80;;;;;;5012622;28;20286;-72
2022/04/27 04:23:18;;;;;;;1.35;1.25;;;19.40;53.80;;;;;;5031212;28;20209;-72
2022/04/27 04:28:36;;;;;;;1.58;1.48;;;19.40;53.80;;;;;;5030781;28;20190;-70
2022/04/27 04:31:05;;;;;;;1.35;1.25;;;19.40;53.80;;;;;;5014547;28;20179;-72
2022/04/27 04:33:30;;;;;;;1.50;1.40;;;19.40;53.80;;;;;;5031151;28;20211;-72
2022/04/27 04:35:58;;;;;;;1.50;1.38;;;19.50;53.90;;;;;;5030904;28;20175;-71
2022/04/27 04:38:26;;;;;;;1.38;1.27;;;19.40;53.80;;;;;;5030958;28;20265;-72
2022/04/27 04:40:56;;;;;;;1.48;1.38;;;19.50;53.90;;;;;;5015076;28;20204;-72
2022/04/27 04:43:32;;;;;;;1.90;1.80;;;19.40;53.90;;;;;;5015650;28;20194;-72
2022/04/27 04:45:59;;;;;;;2.13;1.92;;;19.40;53.80;;;;;;5014404;28;20187;-72
2022/04/27 04:48:51;;;;;;;1.88;1.77;;;19.40;53.80;;;;;;5031338;28;20269;-73
2022/04/27 04:51:35;;;;;;;1.33;1.23;;;19.40;53.70;;;;;;5034714;28;20195;-73
2022/04/27 04:54:24;;;;;;;1.60;1.50;;;19.50;53.90;;;;;;5034957;28;20182;-73
2022/04/27 04:57:02;;;;;;;1.10;1.10;;;19.40;53.80;;;;;;5019586;28;20182;-72
2022/04/27 04:59:39;;;;;;;1.50;1.40;;;19.50;53.80;;;;;;5019601;28;20249;-71
2022/04/27 05:02:34;;;;;;;1.90;1.80;;;19.50;53.80;;;;;;5032409;28;20234;-72
2022/04/27 05:05:14;;;;;;;1.50;1.40;;;19.50;53.80;;;;;;5046524;23;20222;-70
2022/04/27 05:08:06;;;;;;;1.13;1.13;;;19.50;53.80;;;;;;5017726;28;20174;-70
2022/04/27 05:10:53;;;;;;;1.15;1.15;;;19.40;53.70;;;;;;5031452;28;20191;-70
2022/04/27 05:13:37;;;;;;;1.10;1.10;;;19.50;53.80;;;;;;5032342;28;20179;-70
2022/04/27 05:16:22;;;;;;;1.70;1.60;;;19.50;53.80;;;;;;5046948;28;20222;-70
2022/04/27 05:19:08;;;;;;;1.52;1.42;;;19.50;54.40;;;;;;5030580;28;20249;-70
2022/04/27 05:21:52;;;;;;;1.00;1.00;;;19.50;53.80;;;;;;5035433;28;20210;-70
2022/04/27 05:24:33;;;;;;;1.23;1.13;;;19.50;53.80;;;;;;5033991;28;20206;-70
2022/04/27 05:27:13;;;;;;;1.10;1.10;;;19.50;53.90;;;;;;5050594;28;20190;-70
2022/04/27 05:33:03;;;;;;;1.85;1.75;;;19.50;53.80;;;;;;5013850;28;20187;-70
2022/04/27 05:35:54;;;;;;;1.50;1.40;;;19.50;53.70;;;;;;5042760;28;20238;-70
2022/04/27 05:38:56;;;;;;;1.13;1.02;;;19.50;53.80;;;;;;5002820;28;20242;-70
2022/04/27 05:41:41;;;;;;;1.58;1.48;;;19.50;53.80;;;;;;5015298;28;20227;-69
2022/04/27 05:44:26;;;;;;;2.22;2.03;;;19.50;53.80;;;;;;5014139;28;20231;-69
2022/04/27 05:47:09;;;;;;;1.90;1.80;;;19.50;53.80;;;;;;5030146;28;20183;-70
2022/04/27 05:49:54;;;;;;;1.55;1.45;;;19.50;53.80;;;;;;5015010;28;20199;-70
2022/04/27 05:52:54;;;;;;;1.27;1.20;;;19.50;53.70;;;;;;5041092;28;20238;-70
2022/04/27 05:55:43;;;;;;;1.60;1.50;;;19.50;53.80;;;;;;5014872;28;20196;-70
2022/04/27 05:58:30;;;;;;;3.00;2.25;;;19.50;53.80;;;;;;5013864;28;20180;-70
2022/04/27 06:01:14;;;;;;;2.15;2.05;;;19.50;53.70;;;;;;5033042;28;20591;-70
2022/04/27 06:03:53;;;;;;;1.60;1.50;;;19.50;53.70;;;;;;5035095;28;20184;-70
2022/04/27 06:06:20;;;;;;;2.25;1.52;;;19.50;53.60;;;;;;5029826;28;20211;-70
2022/04/27 06:08:46;;;;;;;1.70;1.20;;;19.50;53.70;;;;;;5013130;28;20276;-70
2022/04/27 06:11:22;;;;;;;1.33;1.23;;;19.50;53.70;;;;;;5030305;28;20180;-70
2022/04/27 06:14:06;;;;;;;1.40;1.30;;;19.60;53.80;;;;;;5023169;28;20245;-70
2022/04/27 06:16:41;;;;;;;1.58;1.48;;;19.60;53.70;;;;;;5048419;28;20210;-70
2022/04/27 06:19:13;;;;;;;1.50;1.40;;;19.60;53.70;;;;;;5032933;28;20195;-70
2022/04/27 06:21:39;;;;;;;1.90;1.80;;;19.50;53.70;;;;;;5046578;28;20208;-70
2022/04/27 06:24:06;;;;;;;1.80;1.70;;;19.50;53.70;;;;;;5021280;28;20188;-70
2022/04/27 06:26:33;;;;;;;1.80;1.70;;;19.50;53.60;;;;;;5029364;28;20203;-70
2022/04/27 06:29:00;;;;;;;2.00;1.90;;;19.60;53.70;;;;;;5017671;28;20184;-70
2022/04/27 06:31:27;;;;;;;2.40;1.80;;;19.60;53.70;;;;;;5033092;28;20643;-70
2022/04/27 06:33:58;;;;;;;1.90;1.80;;;19.60;53.70;;;;;;5016989;28;20183;-70
2022/04/27 06:36:24;;;;;;;1.60;1.50;;;19.60;53.60;;;;;;5016130;28;20683;-69
2022/04/27 06:38:50;;;;;;;1.60;1.50;;;19.60;53.70;;;;;;5032165;28;20182;-70
2022/04/27 06:41:30;;;;;;;1.15;1.15;;;19.60;53.60;;;;;;5038181;28;20215;-70
2022/04/27 06:44:19;;;;;;;1.30;1.20;;;19.60;53.60;;;;;;5014081;28;20214;-70
2022/04/27 06:47:17;;;;;;;1.98;1.48;;;19.60;53.60;;;;;;5022522;28;20290;-70
2022/04/27 06:50:02;;;;;;;1.75;1.65;;;19.60;53.60;;;;;;5046840;28;20179;-70
2022/04/27 06:53:04;;;;;;;1.17;1.15;;;19.60;53.60;;;;;;4991896;28;20219;-70
2022/04/27 06:55:50;;;;;;;1.27;1.10;;;19.60;53.70;;;;;;5008741;28;20230;-70
2022/04/27 06:58:21;;;;;;;1.55;1.33;;;19.70;53.70;;;;;;5013600;28;20191;-69
2022/04/27 07:00:59;;;;;;;1.33;1.20;;;19.70;54.20;;;;;;4997831;28;20215;-70
2022/04/27 07:03:26;;;;;;;0.98;0.98;;;19.70;53.70;;;;;;5029133;28;20180;-70
2022/04/27 07:05:52;;;;;;;1.05;1.05;;;19.70;53.60;;;;;;4995812;28;20235;-70
2022/04/27 07:08:18;;;;;;;1.23;1.13;;;19.70;53.60;;;;;;4995959;28;20280;-70
2022/04/27 07:10:44;;;;;;;1.30;1.20;;;19.80;53.50;;;;;;5012457;28;20244;-70
2022/04/27 07:13:10;;;;;;;1.38;1.30;;;19.80;53.50;;;;;;5012018;28;20200;-70
2022/04/27 07:15:36;;;;;;;1.15;1.08;;;19.80;53.40;;;;;;5013414;28;20214;-70
2022/04/27 07:18:01;;;;;;;1.20;1.20;;;19.80;53.50;;;;;;5012237;28;20199;-70
2022/04/27 07:20:27;;;;;;;1.00;1.00;;;19.80;53.50;;;;;;5018462;28;20192;-69
2022/04/27 07:22:53;;;;;;;1.30;1.17;;;19.80;53.50;;;;;;5028833;28;20279;-70
2022/04/27 07:25:19;;;;;;;1.50;1.40;;;19.80;53.50;;;;;;5013207;28;20198;-69
2022/04/27 07:27:45;;;;;;;1.30;1.20;;;19.70;53.40;;;;;;5024825;28;20609;-70
2022/04/27 07:30:12;;;;;;;1.20;1.10;;;19.70;53.40;;;;;;5048368;28;20282;-70
2022/04/27 07:32:37;;;;;;;2.17;1.45;;;19.80;53.50;;;;;;5031695;28;20275;-70
2022/04/27 07:35:04;;;;;;;1.25;1.25;;;19.80;53.60;;;;;;5048321;28;20211;-70
2022/04/27 07:37:30;;;;;;;1.30;1.20;;;19.80;53.60;;;;;;5014857;28;20207;-70
2022/04/27 07:39:57;;;;;;;1.90;1.38;;;19.80;53.50;;;;;;5031319;28;20189;-69
2022/04/27 07:42:22;;;;;;;1.23;1.13;;;19.70;53.50;;;;;;5031413;28;20300;-70
2022/04/27 07:44:48;;;;;;;0.95;0.95;;;19.70;53.50;;;;;;5047992;28;20691;-70
2022/04/27 07:47:15;;;;;;;1.20;1.20;;;19.80;53.60;;;;;;5047690;28;20195;-70
2022/04/27 07:49:41;;;;;;;1.95;1.30;;;19.80;53.60;;;;;;5031174;28;20277;-70
2022/04/27 07:52:07;;;;;;;1.85;1.20;;;19.70;53.60;;;;;;5031334;28;20306;-70
2022/04/27 07:54:33;;;;;;;0.93;0.93;;;19.70;53.60;;;;;;5031216;28;20612;-69
2022/04/27 07:56:58;;;;;;;1.00;1.00;;;19.70;53.60;;;;;;5014809;28;20183;-70
2022/04/27 07:59:25;;;;;;;1.10;1.10;;;19.70;53.50;;;;;;5031089;28;20222;-70
2022/04/27 08:01:51;;;;;;;1.23;1.13;;;19.80;53.60;;;;;;5031078;28;20246;-70
2022/04/27 08:04:17;;;;;;;1.10;1.00;;;19.80;53.60;;;;;;5030898;28;20222;-70
2022/04/27 08:06:43;;;;;;;1.40;1.30;;;19.80;53.60;;;;;;5047616;28;20245;-70
2022/04/27 08:09:08;;;;;;;1.23;1.20;;;19.70;53.60;;;;;;5030916;28;20258;-70
2022/04/27 08:11:34;;;;;;;1.30;1.20;;;19.80;53.50;;;;;;5031471;28;20245;-70
2022/04/27 08:14:00;;;;;;;1.50;1.40;;;19.70;53.50;;;;;;5047572;28;20238;-70
2022/04/27 08:16:25;;;;;;;1.67;1.20;;;19.80;53.60;;;;;;5030671;28;20211;-70
2022/04/27 08:18:51;;;;;;;1.10;1.10;;;19.70;53.50;;;;;;5030858;28;20654;-69
2022/04/27 08:21:21;;;;;;;0.93;0.93;;;19.70;53.50;;;;;;5030941;28;20207;-70
2022/04/27 08:23:49;;;;;;;1.10;1.10;;;19.70;53.50;;;;;;5035128;28;20183;-70
2022/04/27 08:26:16;;;;;;;0.80;0.80;;;19.80;53.60;;;;;;5037300;28;20207;-70
2022/04/27 08:28:43;;;;;;;1.00;1.00;;;19.80;53.70;;;;;;5054241;28;20179;-70
2022/04/27 08:31:13;;;;;;;1.10;1.00;;;19.80;53.70;;;;;;5037828;28;20546;-70
2022/04/27 08:33:39;;;;;;;0.90;0.90;;;19.70;53.60;;;;;;5021317;28;20187;-70
2022/04/27 08:36:07;;;;;;;0.90;0.90;;;19.80;53.60;;;;;;5037397;28;20214;-70
2022/04/27 08:38:34;;;;;;;1.00;1.00;;;19.80;53.60;;;;;;5036897;28;20198;-70
2022/04/27 08:41:00;;;;;;;1.27;1.17;;;19.80;53.50;;;;;;5037492;28;20211;-70
2022/04/27 08:43:26;;;;;;;1.20;1.10;;;19.80;53.40;;;;;;5034196;28;20184;-70
2022/04/27 08:45:54;;;;;;;1.23;1.13;;;19.90;53.50;;;;;;5017892;28;20204;-70
2022/04/27 08:48:21;;;;;;;1.27;1.17;;;19.90;53.40;;;;;;5051534;28;20183;-69
2022/04/27 08:50:48;;;;;;;1.20;1.10;;;19.90;53.30;;;;;;5037704;28;20182;-70
2022/04/27 08:53:15;;;;;;;1.30;1.20;;;19.90;53.40;;;;;;5037510;28;20190;-69
2022/04/27 08:55:41;;;;;;;0.95;0.95;;;19.90;53.40;;;;;;5037251;28;20214;-70
2022/04/27 08:58:10;;;;;;;1.02;1.00;;;19.90;53.20;;;;;;5038127;28;20236;-70
2022/04/27 09:00:36;;;;;;;1.08;0.93;;;19.90;53.30;;;;;;5054114;28;20195;-70
2022/04/27 09:03:24;;;;;;;1.38;1.25;;;19.90;53.30;;;;;;5038466;28;20168;-70
2022/04/27 09:06:06;;;;;;;1.08;1.08;;;19.90;53.20;;;;;;5037027;28;20218;-70
2022/04/27 09:08:45;;;;;;;1.45;0.95;;;20.00;53.30;;;;;;5053484;28;20316;-70
2022/04/27 09:11:21;;;;;;;1.48;1.38;;;19.90;53.10;;;;;;5037109;28;20187;-70
2022/04/27 09:14:01;;;;;;;2.05;1.13;;;20.00;53.20;;;;;;5053782;28;20191;-70
2022/04/27 09:22:08;;;;;;;1.02;1.02;;;20.00;53.20;;;;;;5053721;28;20261;-70
2022/04/27 09:25:01;;;;;;;1.17;1.10;;;20.00;53.20;;;;;;5037244;28;20214;-70
2022/04/27 09:27:27;;;;;;;1.20;1.10;;;20.00;53.10;;;;;;5035629;28;20298;-70
2022/04/27 09:30:10;;;;;;;1.30;1.20;;;20.00;53.30;;;;;;5027294;28;20183;-70
2022/04/27 09:32:36;;;;;;;1.85;1.30;;;20.00;53.20;;;;;;5034746;28;20176;-70
2022/04/27 09:35:03;;;;;;;1.20;1.10;;;20.00;53.20;;;;;;5014734;28;20218;-70
2022/04/27 09:37:38;;;;;;;1.77;1.20;;;20.00;53.20;;;;;;5024995;28;20191;-70
2022/04/27 09:40:13;;;;;;;1.00;1.00;;;20.00;53.20;;;;;;5034110;28;20178;-70
2022/04/27 09:42:46;;;;;;;1.00;1.00;;;20.00;53.20;;;;;;5033708;28;20202;-70
2022/04/27 09:45:17;;;;;;;1.08;1.08;;;20.00;53.20;;;;;;5030314;28;20572;-70
2022/04/27 09:47:57;;;;;;;1.23;1.17;;;20.00;53.40;;;;;;5006548;28;20636;-70
2022/04/27 09:50:24;;;;;;;1.08;1.08;;;20.00;53.20;;;;;;5013691;28;20195;-70
2022/04/27 09:52:50;;;;;;;1.30;1.20;;;20.00;53.20;;;;;;5013763;28;20334;-70
2022/04/27 09:55:16;;;;;;;1.23;1.10;;;20.00;53.30;;;;;;5013725;28;20232;-70
2022/04/27 09:57:42;;;;;;;1.40;1.30;;;20.00;53.30;;;;;;5025929;28;20720;-70
2022/04/27 10:00:12;;;;;;;1.40;1.30;;;20.00;53.20;;;;;;5033447;28;20223;-70
2022/04/27 10:02:46;;;;;;;1.00;1.00;;;20.00;53.20;;;;;;5050210;28;20253;-70
2022/04/27 10:05:11;;;;;;;1.52;1.42;;;20.00;53.20;;;;;;5049826;28;20237;-70
2022/04/27 10:07:38;;;;;;;1.27;1.10;;;20.00;53.20;;;;;;5034084;28;20179;-70
2022/04/27 10:10:05;;;;;;;1.42;1.20;;;20.00;53.20;;;;;;5033563;28;20187;-70
2022/04/27 10:12:38;;;;;;;1.05;1.00;;;20.00;53.10;;;;;;5016993;28;20191;-69
2022/04/27 10:15:05;;;;;;;1.05;1.05;;;20.00;53.10;;;;;;5033003;28;20297;-69
2022/04/27 10:17:32;;;;;;;1.20;1.08;;;20.00;53.00;;;;;;5049725;28;20217;-70
2022/04/27 10:19:58;;;;;;;1.30;1.20;;;20.00;53.00;;;;;;5033183;28;20241;-70
2022/04/27 10:22:31;;;;;;;1.40;1.10;;;20.00;52.90;;;;;;5034179;28;20219;-70
2022/04/27 10:25:09;;;;;;;1.30;1.20;;;20.00;53.00;;;;;;5050611;28;20206;-70
2022/04/27 10:27:42;;;;;;;1.05;1.05;;;20.00;53.00;;;;;;5057694;28;20187;-70
2022/04/27 10:30:13;;;;;;;1.20;1.10;;;20.00;53.00;;;;;;5032908;28;20182;-70
2022/04/27 10:32:44;;;;;;;1.33;1.23;;;20.00;52.90;;;;;;5029501;28;20188;-70
2022/04/27 10:35:12;;;;;;;1.00;1.00;;;20.00;52.80;;;;;;5020918;28;20218;-70
2022/04/27 10:38:05;;;;;;;1.00;1.00;;;20.00;52.80;;;;;;5048937;28;20191;-70
2022/04/27 10:40:39;;;;;;;1.38;1.27;;;20.10;53.00;;;;;;5024302;28;20708;-70
2022/04/27 10:43:08;;;;;;;1.50;1.20;;;20.10;53.00;;;;;;5034015;28;20190;-70
2022/04/27 10:45:40;;;;;;;1.20;1.10;;;20.00;53.20;;;;;;5048788;28;20225;-70
2022/04/27 10:48:13;;;;;;;1.63;1.10;;;20.00;53.10;;;;;;5044621;28;20181;-70
2022/04/27 10:50:39;;;;;;;2.17;1.30;;;20.00;53.10;;;;;;5045839;28;20220;-69
2022/04/27 10:53:16;;;;;;;1.20;1.10;;;20.10;53.20;;;;;;5029417;28;20644;-70
2022/04/27 10:55:45;;;;;;;1.20;1.10;;;20.10;53.20;;;;;;5045919;28;20204;-69
2022/04/27 10:58:31;;;;;;;1.05;1.05;;;20.00;53.40;;;;;;5048613;28;20187;-71
2022/04/27 11:01:02;;;;;;;2.75;1.60;;;20.00;53.00;;;;;;5032319;28;20207;-69
2022/04/27 11:03:38;;;;;;;2.58;1.23;;;20.10;53.40;;;;;;5048883;28;20187;-69
2022/04/27 11:06:09;;;;;;;3.30;1.10;;;20.10;53.30;;;;;;5048976;28;20217;-69
2022/04/27 11:09:15;;;;;;;1.00;1.00;;;20.10;53.20;;;;;;5031532;28;20573;-70
2022/04/27 11:11:55;;;;;;;1.25;1.13;;;20.00;53.10;;;;;;5032099;28;20176;-70
2022/04/27 11:14:34;;;;;;;1.95;1.10;;;20.10;53.20;;;;;;5032235;28;20190;-70
2022/04/27 11:17:00;;;;;;;1.38;1.27;;;20.10;53.10;;;;;;5044886;28;20202;-70
2022/04/27 11:19:38;;;;;;;1.85;1.35;;;20.00;53.10;;;;;;5031783;28;20183;-70
2022/04/27 11:22:15;;;;;;;1.23;0.90;;;20.10;53.10;;;;;;5025087;28;20229;-70
2022/04/27 11:24:44;;;;;;;1.15;1.10;;;20.00;53.10;;;;;;5013224;28;20227;-70
2022/04/27 11:27:11;;;;;;;1.48;1.30;;;20.00;53.00;;;;;;5020195;28;20191;-70
2022/04/27 11:29:38;;;;;;;1.63;1.02;;;20.10;53.20;;;;;;5048317;28;20184;-70
2022/04/27 11:32:08;;;;;;;1.30;1.20;;;20.10;53.10;;;;;;5028375;28;20192;-70
2022/04/27 11:34:34;;;;;;;1.10;1.10;;;20.10;53.10;;;;;;5044852;28;20273;-70
2022/04/27 11:37:19;;;;;;;2.03;1.23;;;20.10;53.10;;;;;;5035460;28;20195;-70
2022/04/27 11:39:46;;;;;;;1.20;1.08;;;20.10;53.10;;;;;;5032662;28;20167;-69
2022/04/27 11:42:13;;;;;;;1.35;1.00;;;20.10;53.00;;;;;;5031435;28;20242;-68
2022/04/27 11:44:40;;;;;;;0.88;0.80;;;20.00;52.80;;;;;;5014961;28;20211;-69
2022/04/27 11:47:29;;;;;;;1.42;1.00;;;20.10;53.00;;;;;;5047932;28;20191;-69
2022/04/27 11:50:04;;;;;;;1.20;1.15;;;20.10;53.00;;;;;;5037201;28;20193;-70
2022/04/27 11:52:31;;;;;;;2.55;1.02;;;20.10;53.00;;;;;;5038320;28;20186;-70
2022/04/27 11:55:15;;;;;;;1.85;1.10;;;20.10;52.90;;;;;;5067935;28;20208;-69
2022/04/27 11:57:43;;;;;;;1.48;1.10;;;20.10;53.00;;;;;;5090933;22;20257;-71
2022/04/27 12:00:10;;;;;;;1.25;1.05;;;20.10;53.00;;;;;;5053227;28;20189;-70
2022/04/27 12:02:42;;;;;;;1.98;1.15;;;20.10;53.00;;;;;;5069981;28;20699;-71
2022/04/27 12:05:09;;;;;;;1.27;1.05;;;20.10;53.00;;;;;;5053914;28;20292;-71
2022/04/27 12:07:36;;;;;;;1.05;1.00;;;20.10;53.00;;;;;;5067282;28;20232;-71
2022/04/27 12:10:12;;;;;;;1.58;1.05;;;20.10;53.00;;;;;;5073850;28;20279;-70
2022/04/27 12:12:38;;;;;;;1.50;1.00;;;20.10;52.90;;;;;;5073867;28;20184;-70
2022/04/27 12:15:11;;;;;;;1.20;1.10;;;20.10;53.10;;;;;;5074020;28;20648;-71
2022/04/27 12:17:44;;;;;;;1.20;1.20;;;20.10;53.00;;;;;;5073958;28;20216;-70
2022/04/27 12:20:37;;;;;;;1.52;1.30;;;20.10;53.00;;;;;;5073738;28;20576;-71
2022/04/27 12:23:19;;;;;;;1.48;1.20;;;20.10;53.00;;;;;;5057105;28;20200;-70
2022/04/27 12:25:59;;;;;;;1.17;1.08;;;20.10;53.00;;;;;;5090781;28;20212;-72
2022/04/27 12:28:41;;;;;;;2.55;1.00;;;20.10;53.00;;;;;;5057014;28;20203;-70
2022/04/27 12:31:09;;;;;;;1.10;1.10;;;20.10;52.90;;;;;;5091993;28;20185;-71
2022/04/27 12:33:49;;;;;;;2.45;1.20;;;20.10;52.80;;;;;;5057183;28;20187;-68
2022/04/27 12:39:23;;;;;;;1.38;1.27;;;20.10;53.00;;;;;;5091559;28;20187;-70
2022/04/27 12:41:52;;;;;;;1.15;1.10;;;20.10;52.90;;;;;;5073930;28;20212;-70
2022/04/27 12:44:35;;;;;;;3.63;1.20;;;20.10;52.90;;;;;;5073772;28;20245;-71
2022/04/27 12:47:09;;;;;;;1.75;1.20;;;20.10;52.70;;;;;;5073725;28;20313;-72
2022/04/27 12:49:41;;;;;;;2.55;1.20;;;20.10;52.70;;;;;;5056812;28;20188;-71
2022/04/27 12:52:33;;;;;;;2.75;1.10;;;20.10;52.70;;;;;;5073746;28;20181;-70
2022/04/27 12:55:10;;;;;;;1.50;1.13;;;20.10;52.80;;;;;;5066000;28;20263;-71
2022/04/27 12:57:55;;;;;;;1.20;1.10;;;20.10;52.70;;;;;;5072194;28;20209;-71
2022/04/27 13:00:43;;;;;;;1.20;1.10;;;20.10;52.80;;;;;;5037116;28;20212;-72
2022/04/27 13:03:11;;;;;;;1.10;1.00;;;20.10;52.80;;;;;;5053689;28;20204;-72
2022/04/27 13:05:40;;;;;;;2.08;1.13;;;20.10;52.80;;;;;;5036715;28;20249;-70
2022/04/27 13:08:08;;;;;;;3.15;1.10;;;20.10;52.80;;;;;;5070058;28;20233;-71
2022/04/27 13:13:20;;;;;;;1.50;1.35;;;20.10;53.10;;;;;;5059427;28;20200;-72
2022/04/27 13:15:46;;;;;;;0.98;0.98;;;20.00;53.00;;;;;;5074976;28;20182;-71
2022/04/27 13:18:13;;;;;;;2.75;1.30;;;20.00;52.80;;;;;;5040022;28;20214;-72
2022/04/27 13:20:39;;;;;;;1.83;1.70;;;20.00;52.90;;;;;;5074832;28;20177;-72
2022/04/27 13:23:07;;;;;;;1.85;1.30;;;20.10;53.00;;;;;;5056902;28;20185;-70
2022/04/27 13:25:33;;;;;;;1.70;1.60;;;20.10;52.90;;;;;;5073709;28;20209;-70
2022/04/27 13:27:59;;;;;;;1.40;1.17;;;20.00;52.90;;;;;;5056679;28;20646;-71
2022/04/27 13:30:24;;;;;;;1.45;1.35;;;20.00;52.80;;;;;;5073557;28;20194;-70
2022/04/27 13:32:50;;;;;;;1.88;1.35;;;20.00;52.90;;;;;;5056752;28;20255;-71